createdAt,value
2022-08-26T08:35:59.375Z,100046.91
2022-08-26T08:38:04.247Z,100046.91
2022-08-26T08:40:09.053Z,100043.25
2022-08-26T08:42:33.607Z,100044.50
2022-08-26T08:44:40.931Z,100044.44
2022-08-26T08:46:45.174Z,100047.13
2022-08-26T08:48:56.778Z,100039.28
2022-08-26T08:51:18.326Z,100041.97
2022-08-26T08:53:33.005Z,100036.16
2022-08-26T08:55:48.810Z,100036.72
2022-08-26T08:58:13.428Z,100038.41
2022-08-26T09:00:19.404Z,100038.22
2022-08-26T09:02:39.344Z,100036.06
2022-08-26T09:05:00.920Z,100037.34
2022-08-26T09:07:06.265Z,100043.78
2022-08-26T09:09:22.990Z,100035.09
2022-08-26T09:11:26.145Z,100032.19
2022-08-26T09:13:29.205Z,100037.94
2022-08-26T09:15:53.108Z,100030.06
2022-08-26T09:18:22.063Z,100029.56
2022-08-26T09:20:49.619Z,100025.75
2022-08-26T09:22:52.507Z,100020.53
2022-08-26T09:24:55.267Z,100017.50
2022-08-26T09:26:59.208Z,100012.97
2022-08-26T09:29:05.388Z,100015.84
2022-08-26T09:31:22.002Z,100016.84
2022-08-26T09:33:32.346Z,100018.19
2022-08-26T09:35:41.694Z,100020.72
2022-08-26T09:40:29.266Z,100009.66
2022-08-26T09:42:32.555Z,100011.09
2022-08-26T09:44:56.755Z,100007.53
2022-08-26T09:47:08.938Z,100006.72
2022-08-26T09:49:36.818Z,99996.00
2022-08-26T09:51:39.335Z,99992.41
2022-08-26T09:53:54.653Z,99996.34
2022-08-26T09:56:17.059Z,100004.50
2022-08-26T09:58:38.576Z,100000.72
2022-08-26T10:00:56.608Z,99994.37
2022-08-26T10:03:01.053Z,100000.56
2022-08-26T10:05:09.584Z,99994.03
2022-08-26T10:07:12.315Z,99991.28
2022-08-26T10:09:18.849Z,99987.84
2022-08-26T10:11:31.324Z,99987.16
2022-08-26T10:13:38.170Z,99996.28
2022-08-26T10:15:51.198Z,99987.41
2022-08-26T10:18:03.400Z,99983.25
2022-08-26T10:20:23.664Z,99982.97
2022-08-26T10:22:33.060Z,99978.13
2022-08-26T10:24:41.547Z,99985.22
2022-08-26T10:27:02.452Z,99978.91
2022-08-26T10:29:15.383Z,99981.84
2022-08-26T10:31:40.295Z,99974.53
2022-08-26T10:33:43.209Z,99977.03
2022-08-26T10:35:53.514Z,99972.84
2022-08-26T10:38:01.654Z,99969.19
2022-08-26T10:40:16.317Z,99962.66
2022-08-26T10:42:38.239Z,99961.34
2022-08-26T10:44:41.480Z,99959.84
2022-08-26T10:46:53.592Z,99960.75
2022-08-26T10:49:06.751Z,99955.81
2022-08-26T10:51:12.610Z,99953.56
2022-08-26T10:53:38.011Z,99951.66
2022-08-26T10:56:03.800Z,99956.34
2022-08-26T10:58:26.417Z,99947.81
2022-08-26T11:00:56.046Z,99946.69
2022-08-26T11:03:25.362Z,99936.81
2022-08-26T11:05:27.736Z,99949.72
2022-08-26T11:07:32.897Z,99938.00
2022-08-26T11:09:46.916Z,99938.56
2022-08-26T11:11:50.537Z,99941.31
2022-08-26T11:14:04.853Z,99935.94
2022-08-26T11:16:08.358Z,99935.34
2022-08-26T11:18:29.787Z,99926.25
2022-08-26T11:20:45.122Z,99925.53
2022-08-26T11:22:50.596Z,99925.37
2022-08-26T11:24:52.777Z,99924.00
2022-08-26T11:26:56.697Z,99923.97
2022-08-26T11:28:59.722Z,99920.31
2022-08-26T11:31:10.173Z,99912.75
2022-08-26T11:33:44.347Z,99905.84
2022-08-26T11:35:48.951Z,99903.97
2022-08-26T11:37:58.228Z,99897.09
2022-08-26T11:40:03.136Z,99901.34
2022-08-26T11:42:34.466Z,99898.09
2022-08-26T11:44:49.443Z,99898.06
2022-08-26T11:46:54.094Z,99894.75
2022-08-26T11:49:05.861Z,99893.25
2022-08-26T11:51:12.345Z,99892.44
2022-08-26T11:53:19.222Z,99885.91
2022-08-26T11:55:23.219Z,99887.75
2022-08-26T11:57:27.219Z,99881.34
2022-08-26T12:01:46.519Z,99876.28
2022-08-26T12:03:52.127Z,99877.56
2022-08-26T12:05:55.199Z,99882.97
2022-08-26T12:08:13.364Z,99867.72
2022-08-26T12:10:29.868Z,99863.56
2022-08-26T12:12:38.735Z,99859.97
2022-08-26T12:14:42.073Z,99860.16
2022-08-26T12:16:44.777Z,99853.78
2022-08-26T12:18:47.105Z,99854.03
2022-08-26T12:20:53.924Z,99852.72
2022-08-26T12:22:59.246Z,99851.44
2022-08-26T12:25:06.071Z,99842.59
2022-08-26T12:27:16.305Z,99844.56
2022-08-26T12:29:28.308Z,99848.66
2022-08-26T12:31:44.057Z,99840.22
2022-08-26T12:33:49.337Z,99842.91
2022-08-26T12:35:56.626Z,99834.63
2022-08-26T12:37:59.499Z,99838.38
2022-08-26T12:40:39.787Z,99837.41
2022-08-26T12:42:43.598Z,99831.31
2022-08-26T12:44:54.075Z,99827.72
2022-08-26T12:47:06.250Z,99820.63
2022-08-26T12:49:08.821Z,99825.53
2022-08-26T12:51:29.856Z,99816.69
2022-08-26T12:53:34.355Z,99814.22
2022-08-26T12:55:42.597Z,99818.94
2022-08-26T12:57:45.068Z,99819.06
2022-08-26T12:59:47.355Z,99816.22
2022-08-26T13:01:50.878Z,99811.34
2022-08-26T13:03:53.303Z,99802.75
2022-08-26T13:06:23.358Z,99805.16
2022-08-26T13:08:27.954Z,99803.25
2022-08-26T13:10:36.767Z,99800.50
2022-08-26T13:12:41.128Z,99811.84
2022-08-26T13:14:43.729Z,99802.31
2022-08-26T13:16:46.605Z,99797.28
2022-08-26T13:18:51.646Z,99799.12
2022-08-26T13:20:54.289Z,99806.38
2022-08-26T13:22:59.130Z,99801.56
2022-08-26T13:25:01.929Z,99803.13
2022-08-26T13:27:06.345Z,99804.19
2022-08-26T13:29:10.531Z,99783.06
2022-08-26T13:31:14.823Z,99789.03
2022-08-26T13:33:18.675Z,99786.66
2022-08-26T13:35:22.829Z,99794.72
2022-08-26T13:37:35.067Z,99789.78
2022-08-26T13:39:39.470Z,99787.69
2022-08-26T13:41:43.493Z,99791.66
2022-08-26T13:43:46.249Z,99778.63
2022-08-26T13:45:49.707Z,99780.81
2022-08-26T13:47:52.522Z,99782.38
2022-08-26T13:49:56.355Z,99782.66
2022-08-26T13:51:59.011Z,99781.88
2022-08-26T13:54:01.894Z,99777.25
2022-08-26T13:56:06.970Z,99772.37
2022-08-26T13:58:12.368Z,99782.31
2022-08-26T14:00:15.596Z,99787.13
2022-08-26T14:02:18.207Z,99770.22
2022-08-26T14:04:23.258Z,99770.75
2022-08-26T14:06:30.081Z,99766.97
2022-08-26T14:08:32.788Z,99759.91
2022-08-26T14:10:35.583Z,99764.22
2022-08-26T14:12:38.351Z,99757.47
2022-08-26T14:14:40.962Z,99767.50
2022-08-26T14:16:58.956Z,99765.06
2022-08-26T14:19:04.744Z,99758.47
2022-08-26T14:21:08.434Z,99773.22
2022-08-26T14:23:13.968Z,99778.94
2022-08-26T14:25:17.129Z,99784.41
2022-08-26T14:27:19.775Z,99781.13
2022-08-26T14:29:22.185Z,99774.88
2022-08-26T14:31:27.029Z,99780.03
2022-08-26T14:33:33.088Z,99786.59
2022-08-26T14:35:35.380Z,99789.81
2022-08-26T14:37:37.995Z,99790.84
2022-08-26T14:39:40.597Z,99785.69
2022-08-26T14:41:54.287Z,99783.31
2022-08-26T14:44:08.146Z,99790.69
2022-08-26T14:46:10.813Z,99783.41
2022-08-26T14:48:13.483Z,99788.16
2022-08-26T14:50:18.735Z,99786.91
2022-08-26T14:52:21.593Z,99782.88
2022-08-26T14:54:24.023Z,99779.97
2022-08-26T14:56:27.057Z,99789.06
2022-08-26T14:58:32.930Z,99781.66
2022-08-26T15:00:37.876Z,99776.38
2022-08-26T15:02:40.349Z,99782.88
2022-08-26T15:04:43.025Z,99775.59
2022-08-26T15:06:45.554Z,99771.38
2022-08-26T15:08:47.866Z,99769.53
2022-08-26T15:10:50.857Z,99755.38
2022-08-26T15:12:53.231Z,99765.37
2022-08-26T15:14:55.587Z,99759.78
2022-08-26T15:16:58.326Z,99762.41
2022-08-26T15:19:00.951Z,99764.94
2022-08-26T15:21:05.505Z,99762.09
2022-08-26T15:23:08.503Z,99763.97
2022-08-26T15:25:11.541Z,99757.53
2022-08-26T15:27:13.898Z,99750.31
2022-08-26T15:29:16.561Z,99750.97
2022-08-26T15:31:19.466Z,99750.69
2022-08-26T15:33:22.166Z,99744.72
2022-08-26T15:35:24.893Z,99744.00
2022-08-26T15:37:27.323Z,99756.41
2022-08-26T15:39:29.773Z,99747.09
2022-08-26T15:41:34.731Z,99751.22
2022-08-26T15:43:38.403Z,99753.78
2022-08-26T15:45:40.679Z,99749.09
2022-08-26T15:48:01.364Z,99759.25
2022-08-26T15:50:07.117Z,99751.31
2022-08-26T15:52:09.540Z,99751.66
2022-08-26T15:54:12.137Z,99746.78
2022-08-26T15:56:14.823Z,99747.97
2022-08-26T15:58:17.159Z,99739.03
2022-08-26T16:00:20.712Z,99747.03
2022-08-26T16:02:23.444Z,99735.81
2022-08-26T16:04:26.688Z,99737.13
2022-08-26T16:06:32.024Z,99729.66
2022-08-26T16:08:36.675Z,99736.09
2022-08-26T16:10:46.503Z,99738.03
2022-08-26T16:12:51.719Z,99732.44
2022-08-26T16:14:54.714Z,99732.50
2022-08-26T16:17:00.103Z,99731.56
2022-08-26T16:19:07.314Z,99724.94
2022-08-26T16:21:19.521Z,99726.22
2022-08-26T16:23:22.843Z,99723.41
2022-08-26T16:25:25.909Z,99732.38
2022-08-26T16:27:28.532Z,99733.03
2022-08-26T16:29:32.020Z,99730.06
2022-08-26T16:31:34.981Z,99731.75
2022-08-26T16:33:37.972Z,99733.97
2022-08-26T16:35:41.298Z,99737.44
2022-08-26T16:37:43.618Z,99739.59
2022-08-26T16:39:46.275Z,99745.28
2022-08-26T16:41:48.604Z,99738.75
2022-08-26T16:43:51.678Z,99738.62
2022-08-26T16:45:54.448Z,99742.75
2022-08-26T16:47:56.834Z,99747.31
2022-08-26T16:49:59.736Z,99738.47
2022-08-26T16:52:02.655Z,99731.91
2022-08-26T16:54:06.996Z,99741.59
2022-08-26T16:56:17.763Z,99742.22
2022-08-26T16:58:22.106Z,99750.16
2022-08-26T17:00:28.191Z,99752.06
2022-08-26T17:02:30.561Z,99751.66
2022-08-26T17:04:33.792Z,99747.16
2022-08-26T17:06:36.133Z,99747.78
2022-08-26T17:08:40.266Z,99742.91
2022-08-26T17:12:50.305Z,99740.00
2022-08-26T17:14:52.726Z,99745.59
2022-08-26T17:16:55.445Z,99741.25
2022-08-26T17:18:59.245Z,99743.28
2022-08-26T17:21:08.237Z,99743.91
2022-08-26T17:23:10.982Z,99746.19
2022-08-26T17:25:20.486Z,99749.69
2022-08-26T17:27:22.740Z,99749.94
2022-08-26T17:29:25.817Z,99747.16
2022-08-26T17:31:28.140Z,99746.53
2022-08-26T17:33:30.762Z,99751.50
2022-08-26T17:35:33.772Z,99751.50
2022-08-26T17:37:36.136Z,99750.19
2022-08-26T17:39:43.941Z,99756.41
2022-08-26T17:41:46.564Z,99759.00
2022-08-26T17:43:48.836Z,99756.19
2022-08-26T17:45:51.572Z,99757.94
2022-08-26T17:47:56.156Z,99753.00
2022-08-26T17:49:58.793Z,99752.78
2022-08-26T17:52:01.627Z,99753.34
2022-08-26T17:54:04.340Z,99751.69
2022-08-26T17:56:08.905Z,99746.75
2022-08-26T17:58:11.526Z,99750.37
2022-08-26T18:00:20.782Z,99753.34
2022-08-26T18:02:23.565Z,99759.09
2022-08-26T18:04:25.936Z,99756.28
2022-08-26T18:06:30.641Z,99761.09
2022-08-26T18:08:33.315Z,99758.84
2022-08-26T18:10:35.824Z,99763.06
2022-08-26T18:12:39.138Z,99758.38
2022-08-26T18:14:41.709Z,99764.25
2022-08-26T18:16:44.080Z,99771.50
2022-08-26T18:18:47.976Z,99769.06
2022-08-26T18:20:51.876Z,99761.66
2022-08-26T18:22:56.449Z,99773.09
2022-08-26T18:24:59.361Z,99770.84
2022-08-26T18:27:02.221Z,99763.81
2022-08-26T18:29:05.462Z,99767.19
2022-08-26T18:31:08.979Z,99768.78
2022-08-26T18:33:12.271Z,99762.56
2022-08-26T18:35:14.629Z,99760.91
2022-08-26T18:37:16.971Z,99762.47
2022-08-26T18:39:19.599Z,99765.34
2022-08-26T18:41:28.749Z,99759.88
2022-08-26T18:43:31.052Z,99773.28
2022-08-26T18:45:33.745Z,99769.75
2022-08-26T18:47:36.230Z,99767.56
2022-08-26T18:49:39.188Z,99771.25
2022-08-26T18:51:43.085Z,99774.91
2022-08-26T18:53:45.487Z,99775.06
2022-08-26T18:55:48.048Z,99778.19
2022-08-26T18:57:50.830Z,99781.41
2022-08-26T18:59:53.450Z,99783.44
2022-08-26T19:01:55.924Z,99781.50
2022-08-26T19:04:00.434Z,99779.31
2022-08-26T19:06:03.137Z,99776.84
2022-08-26T19:08:06.796Z,99786.81
2022-08-26T19:10:09.732Z,99781.28
2022-08-26T19:12:12.789Z,99784.28
2022-08-26T19:14:16.252Z,99788.28
2022-08-26T19:16:20.673Z,99785.75
2022-08-26T19:18:23.058Z,99784.47
2022-08-26T19:20:25.353Z,99786.28
2022-08-26T19:22:27.935Z,99793.75
2022-08-26T19:24:31.038Z,99791.44
2022-08-26T19:26:34.640Z,99794.25
2022-08-26T19:28:41.061Z,99794.81
2022-08-26T19:30:45.563Z,99797.72
2022-08-26T19:32:48.382Z,99792.63
2022-08-26T19:34:52.427Z,99789.72
2022-08-26T19:36:56.935Z,99789.41
2022-08-26T19:39:00.540Z,99786.00
2022-08-26T19:41:03.277Z,99790.38
2022-08-26T19:43:06.198Z,99793.13
2022-08-26T19:45:24.271Z,99795.31
2022-08-26T19:47:27.936Z,99792.88
2022-08-26T19:49:30.925Z,99799.97
2022-08-26T19:51:35.270Z,99798.59
2022-08-26T19:53:38.330Z,99801.91
2022-08-26T19:55:44.155Z,99804.97
2022-08-26T19:57:47.387Z,99805.03
2022-08-26T19:59:50.444Z,99799.25
2022-08-26T20:02:00.596Z,99808.03
2022-08-26T20:04:04.507Z,99817.16
2022-08-26T20:06:09.166Z,99813.09
2022-08-26T20:08:22.242Z,99809.75
2022-08-26T20:10:25.550Z,99809.63
2022-08-26T20:12:28.275Z,99810.56
2022-08-26T20:14:31.229Z,99819.78
2022-08-26T20:16:34.201Z,99826.84
2022-08-26T20:18:55.438Z,99823.88
2022-08-26T20:21:17.086Z,99828.97
2022-08-26T20:23:21.443Z,99825.16
2022-08-26T20:25:24.217Z,99828.78
2022-08-26T20:27:35.573Z,99826.69
2022-08-26T20:29:43.145Z,99836.31
2022-08-26T20:31:46.952Z,99833.06
2022-08-26T20:33:50.667Z,99839.44
2022-08-26T20:35:53.314Z,99834.63
2022-08-26T20:37:55.643Z,99839.63
2022-08-26T20:39:58.890Z,99836.94
2022-08-26T20:42:01.556Z,99846.09
2022-08-26T20:44:05.317Z,99838.78
2022-08-26T20:46:08.255Z,99840.59
2022-08-26T20:48:20.447Z,99849.34
2022-08-26T20:50:23.146Z,99849.47
2022-08-26T20:52:25.531Z,99849.37
2022-08-26T20:54:28.721Z,99847.72
2022-08-26T20:56:31.182Z,99849.63
2022-08-26T20:58:34.786Z,99849.41
2022-08-26T21:00:38.268Z,99857.00
2022-08-26T21:02:40.655Z,99861.00
2022-08-26T21:04:43.030Z,99861.44
2022-08-26T21:06:52.271Z,99863.47
2022-08-26T21:08:55.595Z,99869.88
2022-08-26T21:10:58.452Z,99861.84
2022-08-26T21:13:02.114Z,99873.00
2022-08-26T21:15:05.737Z,99866.16
2022-08-26T21:17:08.155Z,99860.69
2022-08-26T21:19:12.586Z,99861.09
2022-08-26T21:21:15.277Z,99863.13
2022-08-26T21:23:18.799Z,99865.00
2022-08-26T21:25:21.728Z,99866.03
2022-08-26T21:27:26.337Z,99863.16
2022-08-26T21:29:28.998Z,99868.53
2022-08-26T21:31:32.206Z,99867.25
2022-08-26T21:33:36.367Z,99860.28
2022-08-26T21:35:39.060Z,99870.81
2022-08-26T21:37:41.697Z,99872.47
2022-08-26T21:39:44.259Z,99869.78
2022-08-26T21:41:47.387Z,99865.00
2022-08-26T21:43:51.904Z,99868.31
2022-08-26T21:45:57.623Z,99864.16
2022-08-26T21:47:59.995Z,99864.37
2022-08-26T21:50:03.206Z,99864.37
2022-08-26T21:52:06.017Z,99861.72
2022-08-26T21:54:11.329Z,99863.78
2022-08-26T21:56:17.213Z,99865.44
2022-08-26T21:58:19.507Z,99863.97
2022-08-26T22:00:21.997Z,99861.91
2022-08-26T22:02:24.925Z,99865.00
2022-08-26T22:04:27.799Z,99868.50
2022-08-26T22:06:31.461Z,99859.00
2022-08-26T22:08:34.118Z,99864.34
2022-08-26T22:10:41.549Z,99866.56
2022-08-26T22:12:43.828Z,99858.56
2022-08-26T22:14:47.057Z,99864.25
2022-08-26T22:16:50.507Z,99862.53
2022-08-26T22:18:53.457Z,99867.75
2022-08-26T22:20:58.999Z,99858.22
2022-08-26T22:23:01.383Z,99871.56
2022-08-26T22:25:03.955Z,99865.84
